• Join FlightAware (Why Join?)
  • Login
  • US Flag 
12:32PM EST


 

Airport Tracker/Info


-or-


 

Live Flight TrackerFlight Track Log ✈ N960DL ✈ 14-Apr-2013 ✈ KDFW - KATL

Flight Track Log - Related Links

Times and Time Zones

All times are in EDT time to prevent confusion due to time zone crossing. See the N960DL flight status page for this flight to view local times or setup timezone preferences in your user account.

Time Position Orientation Groundspeed Altitude Reporting Facility
EDT Latitude Longitude Course Direction KTS MPH feet Rate Location/Type
05:16PM 32.8667 -97.0333 67° East 171 197 1,900  Level Dallas / Fort Worth TRACON
05:17PM 32.8000 -97.0000 157° South 232 267 3,400 1,680 Climbing Dallas / Fort Worth TRACON
05:18PM 32.7667 -96.9333 121° Southeast 279 321 5,400 2,220 Climbing Dallas / Fort Worth TRACON
05:19PM 32.7833 -96.8167 80° East 320 368 8,200 1,860 Climbing Dallas / Fort Worth TRACON
05:21PM 32.8600 -96.6072 66° East 356 410 11,500 1,860 Climbing Fort Worth Center
05:22PM 32.9574 -96.3424 67° East  Level FlightAware Approximate
05:22PM 32.9133 -96.4706 65° Northeast 396 456 14,100  Level Fort Worth Center
05:23PM 32.9644 -96.3364 66° East 428 493 16,100 2,100 Climbing Fort Worth Center
05:24PM 32.9903 -96.1925 78° East 438 504 18,400 1,920 Climbing Fort Worth Center
05:25PM 33.0075 -96.0508 82° East 461 531 20,000 1,680 Climbing Fort Worth Center
05:26PM 33.0328 -95.8772 80° East 472 543 21,800 1,620 Climbing Fort Worth Center
05:27PM 33.0519 -95.7331 81° East 490 564 23,300 1,320 Climbing Fort Worth Center
05:28PM 33.0725 -95.5692 81° East 502 578 24,500 1,380 Climbing Fort Worth Center
05:29PM 33.1181 -95.4094 71° East 502 578 26,100 1,500 Climbing Fort Worth Center
05:30PM 33.1656 -95.2494 70° East 497 572 27,500 1,440 Climbing Fort Worth Center
05:31PM 33.2128 -95.0944 70° East 502 578 29,000 1,500 Climbing Fort Worth Center
05:32PM 33.2600 -94.9392 70° East 502 578 30,600 1,200 Climbing Fort Worth Center
05:33PM 33.3069 -94.7886 70° East 489 563 31,500 900 Climbing Fort Worth Center
05:34PM 33.3517 -94.6381 70° East 489 563 32,500 720 Climbing Fort Worth Center
05:35PM 33.3961 -94.4825 71° East 489 563 33,000 240 Climbing Fort Worth Center
05:36PM 33.4428 -94.3292 70° East 489 563 33,000  Level Fort Worth Center
05:37PM 33.4847 -94.1783 72° East 489 563 33,000  Level Fort Worth Center
05:38PM 33.5372 -94.0267 67° East 489 563 33,000  Level Fort Worth Center
05:40PM 33.6269 -93.7825 66° East 483 556 33,000  Level Memphis Center
05:41PM 33.6808 -93.6397 66° East 472 543 33,000  Level Memphis Center
05:42PM 33.7369 -93.4944 65° Northeast 472 543 33,000  Level Memphis Center
05:43PM 33.7925 -93.3517 65° Northeast 472 543 33,000  Level Memphis Center
05:44PM 33.8461 -93.2083 66° East 472 543 33,000  Level Memphis Center
05:45PM 33.8992 -93.0675 66° East 467 537 33,000  Level Memphis Center
05:46PM 33.9544 -92.9214 65° Northeast 467 537 33,000  Level Memphis Center
05:47PM 34.0094 -92.7778 65° Northeast 467 537 33,000  Level Memphis Center
05:48PM 34.0664 -92.6339 64° Northeast 472 543 33,000  Level Memphis Center
05:49PM 34.1217 -92.4697 68° East 472 543 33,000  Level Memphis Center
05:50PM 34.1761 -92.3231 66° East 472 543 33,000  Level Memphis Center
05:51PM 34.2306 -92.1786 65° Northeast 472 543 33,000  Level Memphis Center
05:52PM 34.2847 -92.0339 66° East 472 543 33,000  Level Memphis Center
05:53PM 34.3367 -91.8889 67° East 472 543 33,000  Level Memphis Center
05:54PM 34.3883 -91.7439 67° East 472 543 33,000  Level Memphis Center
05:55PM 34.4419 -91.6014 65° Northeast 467 537 33,000  Level Memphis Center
05:56PM 34.4956 -91.4558 66° East 467 537 33,000  Level Memphis Center
05:57PM 34.5489 -91.3028 67° East 476 548 33,000  Level Memphis Center
05:58PM 34.5958 -91.1694 67° East 476 548 33,000  Level Memphis Center
05:59PM 34.6508 -91.0186 66° East 476 548 33,000  Level Memphis Center
06:00PM 34.7039 -90.8675 67° East 476 548 33,000  Level Memphis Center
06:01PM 34.7564 -90.7211 66° East 471 542 33,000  Level Memphis Center
06:02PM 34.8111 -90.5719 66° East 471 542 33,000  Level Memphis Center
06:03PM 34.8656 -90.4228 66° East 471 542 33,000  Level Memphis Center
06:04PM 34.9239 -90.2583 67° East 477 549 33,000  Level Memphis Center
06:05PM 34.9800 -90.1036 66° East 482 555 33,000  Level Memphis Center
06:06PM 35.0150 -89.9464 75° East 482 555 33,000  Level Memphis Center
06:07PM 34.9956 -89.7767 98° East 472 543 33,000  Level Memphis Center
06:08PM 34.9717 -89.6272 101° East 488 562 33,000  Level Memphis Center
06:09PM 34.9436 -89.4678 102° East 489 563 33,000  Level Memphis Center
06:10PM 34.9172 -89.3061 101° East 489 563 33,000  Level Memphis Center
06:11PM 34.8928 -89.1469 101° East 484 557 33,000  Level Memphis Center
06:12PM 34.8681 -88.9725 100° East 479 551 33,000  Level Memphis Center
06:13PM 34.8433 -88.8161 101° East 479 551 33,000  Level Memphis Center
06:14PM 34.8183 -88.6572 101° East 479 551 33,000  Level Memphis Center
06:15PM 34.7931 -88.5008 101° East 474 545 33,000  Level Memphis Center
06:16PM 34.7656 -88.3447 102° East 469 540 33,000  Level Memphis Center
06:17PM 34.7378 -88.1786 101° East 479 551 33,000  Level Memphis Center
06:18PM 34.7117 -88.0075 100° East 505 581 33,000  Level Memphis Center
06:19PM 34.6814 -87.8467 103° East 497 572 33,000  Level Memphis Center
06:20PM 34.6550 -87.6783 101° East 497 572 33,000  Level Memphis Center
06:21PM 34.6308 -87.5328 101° East 497 572 33,000  Level Memphis Center
06:22PM 34.5975 -87.3547 103° East 492 566 33,000  Level Memphis Center
06:23PM 34.5847 -87.2683 100° East 489 563 33,000  Level Atlanta Center
06:24PM 34.5533 -87.1031 103° East 501 577 33,000  Level Atlanta Center
06:25PM 34.5258 -86.9433 102° East 496 571 33,000 -300 Level Atlanta Center
06:26PM 34.4981 -86.7911 102° East 482 555 32,500 -600 Descending Atlanta Center
06:27PM 34.4764 -86.6392 100° East 459 528 31,900 -780 Descending Atlanta Center
06:28PM 34.5172 -86.4867 72° East 453 521 31,000 -960 Descending Atlanta Center
06:29PM 34.5806 -86.3372 63° Northeast 459 528 30,000 -1,020 Descending Atlanta Center
06:30PM 34.6436 -86.1900 62° Northeast 472 543 29,000 -840 Descending Atlanta Center
06:31PM 34.6756 -86.0392 76° East 459 528 28,400 -1,140 Descending Atlanta Center
06:32PM 34.6294 -85.9194 115° Southeast 392 451 26,800 -1,560 Descending Atlanta Center
06:33PM 34.5533 -85.8447 141° Southeast 334 384 25,300 -1,920 Descending Atlanta Center
06:34PM 34.4922 -85.7400 125° Southeast 356 410 23,000 -1,860 Descending Atlanta Center
06:35PM 34.4353 -85.6306 122° Southeast 376 433 21,600 -1,380 Descending Atlanta Center
06:36PM 34.3864 -85.5314 121° Southeast 382 440 20,300 -1,200 Descending Atlanta Center
06:37PM 34.3606 -85.4153 105° East 359 413 19,200 -1,440 Descending Atlanta Center
06:38PM 34.3556 -85.2919 93° East 359 413 17,500 -1,560 Descending Atlanta Center
06:39PM 34.3528 -85.1611 91° East 359 413 16,100 -1,500 Descending Atlanta Center
06:40PM 34.3033 -85.0747 125° Southeast 317 365 14,500 -1,380 Descending Atlanta Center
06:41PM 34.2158 -85.0561 170° South 294 338 13,400 -780 Descending Atlanta Center
06:42PM 34.1347 -85.0353 168° South 294 338 13,000 -240 Descending Atlanta Center
06:43PM 34.0619 -84.9942 155° Southeast 294 338 13,000 -660 Level Atlanta Center
06:44PM 33.9869 -84.9583 158° South 289 333 11,700 -1,380 Descending Atlanta Center
06:45PM 33.9142 -84.9350 165° South 289 333 10,300 -1,380 Descending Atlanta Center
06:46PM 33.8392 -84.9292 176° South 278 320 9,000 -960 Descending Atlanta Center
06:47PM 33.7744 -84.9311 181° South 256 295 8,400 -900 Descending Atlanta Center
06:48PM 33.7139 -84.9303 179° South 228 262 7,300 -720 Descending Atlanta Center
06:49PM 33.6617 -84.9172 168° South 213 245 7,000 -180 Descending Atlanta Center
06:49PM 33.6333 -84.8667 124° Southeast 220 253 7,100  Climbing Atlanta TRACON
06:50PM 33.6333 -84.8000 90° East 229 264 7,000 -600 Descending Atlanta TRACON
06:51PM 33.6333 -84.7333 90° East 193 222 6,000 -1,080 Descending Atlanta TRACON
06:52PM 33.6333 -84.6667 90° East 182 209 4,900 -1,080 Descending Atlanta TRACON
06:53PM 33.6333 -84.6167 90° East 158 182 3,900 -960 Descending Atlanta TRACON
06:54PM 33.6333 -84.5667 90° East 162 186 3,000 -900 Descending Atlanta TRACON
06:55PM 33.6333 -84.5167 90° East 135 155 2,200 -780 Descending Atlanta TRACON
06:56PM 33.6333 -84.4667 90° East 132 152 1,500 -720 Descending Atlanta TRACON
06:58PM 33.6367 -84.4279 North  Level Estimated
07:05PM 33.6367 -84.4279 North  Level Estimated